Time;durP1;ratioP1;P1;durP2;ratioP2;P2;SDS_P1;SDS_P2;PMS_P1;PMS_P2;Temp;Humidity;BMP_temperature;BMP_pressure;BME280_temperature;BME280_humidity;BME280_pressure;Samples;Min_cycle;Max_cycle;Signal;HPM_P1;HPM_P2
2022/07/05 03:59:59;;;;;;;;;;;;;;;19.02;94.17;98133.29;1737091;81;20214;-89
2022/07/05 04:02:25;;;;;;;;;;;;;;;19.03;90.92;98132.15;1761821;80;20153;-83
2022/07/05 04:04:51;;;;;;;;;;;;;;;19.01;90.47;98133.06;1761707;81;20257;-89
2022/07/05 04:07:17;;;;;;;;;;;;;;;19.03;89.08;98128.03;1761956;81;20182;-89
2022/07/05 04:09:43;;;;;;;;;;;;;;;19.04;90.26;98126.89;1761876;81;20316;-87
2022/07/05 04:12:09;;;;;;;;;;;;;;;19.04;93.96;98130.20;1754472;81;21152;-83
2022/07/05 04:14:35;;;;;;;;;;;;;;;19.03;93.49;98125.85;1728917;82;20442;-89
2022/07/05 04:17:00;;;;;;;;;;;;;;;19.06;93.33;98127.39;1675210;84;20184;-88
2022/07/05 04:19:26;;;;;;;;;;;;;;;19.10;92.42;98122.02;1717969;83;20231;-90
2022/07/05 04:21:52;;;;;;;;;;;;;;;19.12;90.78;98127.41;1688289;84;20242;-83
2022/07/05 04:24:17;;;;;;;;;;;;;;;19.20;90.07;98129.06;1751414;82;21883;-84
2022/07/05 04:26:43;;;;;;;;;;;;;;;19.24;90.99;98119.84;1718800;82;20275;-89
2022/07/05 04:29:09;;;;;;;;;;;;;;;19.31;90.93;98122.03;1751505;81;20245;-84
2022/07/05 04:31:35;;;;;;;;;;;;;;;19.34;92.73;98118.06;1751617;81;20185;-84
2022/07/05 04:34:01;;;;;;;;;;;;;;;19.41;97.36;98119.71;1751304;81;20203;-83
2022/07/05 04:36:26;;;;;;;;;;;;;;;19.45;92.87;98120.63;1751611;81;21096;-83
2022/07/05 04:38:52;;;;;;;;;;;;;;;19.48;95.70;98120.52;1717752;81;20238;-83
2022/07/05 04:41:18;;;;;;;;;;;;;;;19.54;93.21;98118.39;1751567;82;20212;-84
2022/07/05 04:43:43;;;;;;;;;;;;;;;19.55;95.22;98113.13;1752125;81;20697;-89
2022/07/05 04:46:09;;;;;;;;;;;;;;;19.54;93.06;98114.27;1725439;82;20231;-89
2022/07/05 04:48:35;;;;;;;;;;;;;;;19.51;95.10;98118.50;1692347;84;21969;-89
2022/07/05 04:51:01;;;;;;;;;;;;;;;19.51;93.87;98119.88;1751604;82;20713;-83
2022/07/05 04:53:26;;;;;;;;;;;;;;;19.49;92.61;98123.53;1751339;80;20257;-90
2022/07/05 04:55:52;;;;;;;;;;;;;;;19.49;93.79;98122.73;1751288;81;20225;-89
2022/07/05 04:58:18;;;;;;;;;;;;;;;19.48;91.66;98128.77;1746422;80;20189;-84
2022/07/05 05:00:44;;;;;;;;;;;;;;;19.51;91.09;98132.23;1748846;82;21131;-84
2022/07/05 05:03:10;;;;;;;;;;;;;;;19.53;90.99;98131.90;1748176;80;20272;-84
2022/07/05 05:05:35;;;;;;;;;;;;;;;19.55;90.60;98129.04;1762865;81;20298;-84
2022/07/05 05:08:01;;;;;;;;;;;;;;;19.59;90.35;98138.27;1753645;80;20184;-84
2022/07/05 05:10:27;;;;;;;;;;;;;;;19.56;90.69;98142.20;1755244;81;20204;-89
2022/07/05 05:12:53;;;;;;;;;;;;;;;19.52;90.51;98148.16;1746317;81;21407;-87
2022/07/05 05:15:18;;;;;;;;;;;;;;;19.51;91.02;98148.73;1750054;81;20639;-84
2022/07/05 05:17:44;;;;;;;;;;;;;;;19.51;90.74;98152.05;1755447;80;20198;-83
2022/07/05 05:20:15;;;;;;;;;;;;;;;19.50;91.03;98166.92;1754293;81;20297;-83
2022/07/05 05:22:41;;;;;;;;;;;;;;;19.50;90.92;98173.80;1757211;80;20306;-83
2022/07/05 05:25:07;;;;;;;;;;;;;;;19.50;90.84;98173.80;1746397;81;20978;-83
2022/07/05 05:27:33;;;;;;;;;;;;;;;19.51;90.76;98181.70;1740303;81;20299;-84
2022/07/05 05:29:58;;;;;;;;;;;;;;;19.50;90.90;98183.42;1751749;81;20268;-82
2022/07/05 05:32:24;;;;;;;;;;;;;;;19.50;90.82;98194.41;1753030;81;20169;-83
2022/07/05 05:34:50;;;;;;;;;;;;;;;19.47;91.52;98197.23;1750782;81;20176;-83
2022/07/05 05:37:16;;;;;;;;;;;;;;;19.44;90.76;98196.53;1753875;80;21162;-83
2022/07/05 05:39:41;;;;;;;;;;;;;;;19.41;91.58;98200.77;1752015;81;20276;-88
2022/07/05 05:42:07;;;;;;;;;;;;;;;19.36;91.27;98203.69;1750144;81;20252;-89
2022/07/05 05:44:33;;;;;;;;;;;;;;;19.39;90.91;98209.88;1753895;81;20189;-90
2022/07/05 05:46:59;;;;;;;;;;;;;;;19.38;91.39;98206.91;1749318;81;20518;-88
2022/07/05 05:49:25;;;;;;;;;;;;;;;19.41;89.92;98205.45;1751226;80;21086;-83
2022/07/05 05:51:50;;;;;;;;;;;;;;;19.38;91.26;98212.97;1754284;80;20180;-83
2022/07/05 05:54:16;;;;;;;;;;;;;;;19.41;91.41;98210.37;1747394;81;20184;-83
2022/07/05 05:56:42;;;;;;;;;;;;;;;19.44;94.14;98212.45;1753966;80;20265;-83
2022/07/05 05:59:08;;;;;;;;;;;;;;;19.39;97.01;98211.83;1754091;81;20184;-83
2022/07/05 06:01:34;;;;;;;;;;;;;;;19.41;94.76;98215.88;1746964;81;22542;-83
2022/07/05 06:03:59;;;;;;;;;;;;;;;19.45;94.37;98214.62;1751101;81;20268;-83
2022/07/05 06:06:25;;;;;;;;;;;;;;;19.47;93.12;98214.29;1752068;80;20807;-89
2022/07/05 06:08:51;;;;;;;;;;;;;;;19.44;92.13;98212.45;1751247;81;20201;-89
2022/07/05 06:11:17;;;;;;;;;;;;;;;19.44;95.23;98214.39;1754296;81;20177;-86
2022/07/05 06:13:42;;;;;;;;;;;;;;;19.47;92.28;98218.41;1754020;79;21142;-89
2022/07/05 06:16:08;;;;;;;;;;;;;;;19.41;97.00;98210.37;1753186;81;20204;-90
2022/07/05 06:18:34;;;;;;;;;;;;;;;19.42;96.36;98216.11;1752491;81;20209;-89
2022/07/05 06:21:00;;;;;;;;;;;;;;;19.41;96.39;98221.38;1753544;81;20198;-83
2022/07/05 06:23:26;;;;;;;;;;;;;;;19.41;94.98;98221.94;1752693;80;20732;-83
2022/07/05 06:25:51;;;;;;;;;;;;;;;19.38;93.71;98217.89;1750630;81;21065;-83
2022/07/05 06:28:17;;;;;;;;;;;;;;;19.37;95.08;98219.61;1754812;80;20192;-84
2022/07/05 06:30:43;;;;;;;;;;;;;;;19.37;96.99;98220.41;1754321;81;20283;-90
2022/07/05 06:33:09;;;;;;;;;;;;;;;19.36;95.73;98227.05;1757608;81;20389;-83
2022/07/05 06:35:35;;;;;;;;;;;;;;;19.35;93.54;98230.94;1755598;81;20232;-89
2022/07/05 06:38:03;;;;;;;;;;;;;;;19.31;95.30;98225.88;1750280;81;21259;-83
2022/07/05 06:40:30;;;;;;;;;;;;;;;19.30;94.49;98231.68;1746782;81;20184;-83
2022/07/05 06:42:59;;;;;;;;;;;;;;;19.31;94.79;98236.03;1726247;81;20546;-83
2022/07/05 06:45:25;;;;;;;;;;;;;;;19.31;93.82;98234.13;1754430;81;20195;-90
2022/07/05 06:47:57;;;;;;;;;;;;;;;19.28;97.51;98235.34;1756291;81;20731;-83
2022/07/05 06:50:23;;;;;;;;;;;;;;;19.29;98.78;98238.31;1752295;81;21046;-90
2022/07/05 06:52:49;;;;;;;;;;;;;;;19.30;98.32;98235.80;1755829;81;20159;-91
2022/07/05 06:55:14;;;;;;;;;;;;;;;19.32;99.18;98237.67;1751867;81;20179;-84
2022/07/05 06:57:40;;;;;;;;;;;;;;;19.34;100.00;98232.64;1756637;81;20192;-91
2022/07/05 07:00:07;;;;;;;;;;;;;;;19.35;97.88;98243.30;1756458;81;20224;-92
2022/07/05 07:02:33;;;;;;;;;;;;;;;19.44;96.55;98245.42;1754696;80;21028;-85
2022/07/05 07:04:59;;;;;;;;;;;;;;;19.45;98.83;98246.23;1747256;81;20139;-91
2022/07/05 07:10:09;;;;;;;;;;;;;;;19.46;99.07;98238.22;1750202;81;20187;-91
2022/07/05 07:12:35;;;;;;;;;;;;;;;19.45;97.35;98243.48;1755198;80;20199;-84
2022/07/05 07:15:01;;;;;;;;;;;;;;;19.51;96.61;98238.61;1759827;81;21960;-90
2022/07/05 07:17:26;;;;;;;;;;;;;;;19.54;96.25;98240.68;1748019;81;20845;-89
2022/07/05 07:19:52;;;;;;;;;;;;;;;19.55;95.40;98241.72;1757406;81;20186;-83
2022/07/05 07:22:18;;;;;;;;;;;;;;;19.56;95.33;98241.14;1756970;80;20698;-83
2022/07/05 07:24:44;;;;;;;;;;;;;;;19.57;94.62;98247.73;1754358;81;20395;-83
2022/07/05 07:27:09;;;;;;;;;;;;;;;19.54;94.39;98246.17;1746855;80;21127;-89
2022/07/05 07:29:36;;;;;;;;;;;;;;;19.55;93.48;98250.53;1739152;81;20208;-88
2022/07/05 07:32:03;;;;;;;;;;;;;;;19.59;93.42;98255.65;1757209;80;20166;-83
2022/07/05 07:34:29;;;;;;;;;;;;;;;19.54;96.67;98242.86;1745133;81;20195;-83
2022/07/05 07:36:55;;;;;;;;;;;;;;;19.59;97.58;98238.59;1755821;81;20300;-88
2022/07/05 07:39:20;;;;;;;;;;;;;;;19.62;97.47;98239.28;1757031;81;21069;-83
2022/07/05 07:41:46;;;;;;;;;;;;;;;19.64;94.70;98237.00;1757353;80;20537;-90
2022/07/05 07:44:12;;;;;;;;;;;;;;;19.63;98.01;98234.02;1731580;81;20270;-83
2022/07/05 07:46:40;;;;;;;;;;;;;;;19.68;97.30;98230.28;1752213;81;20201;-83
2022/07/05 07:49:07;;;;;;;;;;;;;;;19.76;96.03;98237.66;1757300;81;20291;-83
2022/07/05 07:51:33;;;;;;;;;;;;;;;19.86;94.83;98238.63;1750335;81;21060;-83
2022/07/05 07:53:59;;;;;;;;;;;;;;;19.96;94.50;98245.67;1729081;81;20287;-90
2022/07/05 07:56:25;;;;;;;;;;;;;;;19.99;94.08;98246.36;1756527;81;20225;-83
2022/07/05 07:58:51;;;;;;;;;;;;;;;19.95;92.70;98251.74;1756451;81;20193;-89
2022/07/05 08:01:16;;;;;;;;;;;;;;;19.86;93.12;98240.01;1743733;81;20209;-83
2022/07/05 08:03:43;;;;;;;;;;;;;;;19.86;96.43;98232.33;1719830;81;21061;-83
2022/07/05 08:06:10;;;;;;;;;;;;;;;19.86;96.82;98226.26;1749733;81;20171;-90
2022/07/05 08:08:36;;;;;;;;;;;;;;;19.84;97.68;98226.38;1754614;80;20192;-83
2022/07/05 08:11:02;;;;;;;;;;;;;;;19.89;95.42;98222.02;1755738;80;20176;-90
2022/07/05 08:13:28;;;;;;;;;;;;;;;19.88;94.46;98222.59;1754888;81;20218;-89
2022/07/05 08:15:54;;;;;;;;;;;;;;;19.94;94.17;98215.77;1748580;81;21602;-84
2022/07/05 08:23:48;;;;;;;;;;;;;;;19.93;93.96;98207.85;1753807;80;20485;-82
2022/07/05 08:26:14;;;;;;;;;;;;;;;19.96;93.49;98213.47;1756362;81;20456;-89
2022/07/05 08:28:39;;;;;;;;;;;;;;;20.02;92.79;98216.84;1750970;80;21762;-83
2022/07/05 08:31:05;;;;;;;;;;;;;;;20.05;92.38;98212.02;1726565;82;20277;-83
2022/07/05 08:33:31;;;;;;;;;;;;;;;20.10;92.06;98220.08;1750226;80;20244;-82
2022/07/05 08:35:57;;;;;;;;;;;;;;;20.06;92.26;98226.01;1747877;81;20194;-83
2022/07/05 08:38:23;;;;;;;;;;;;;;;20.00;92.06;98222.67;1744045;82;20234;-83
2022/07/05 08:40:50;;;;;;;;;;;;;;;19.96;93.46;98226.42;1747875;81;21077;-84
2022/07/05 08:43:16;;;;;;;;;;;;;;;19.98;92.42;98227.69;1747586;81;20176;-83
2022/07/05 08:45:45;;;;;;;;;;;;;;;19.90;92.67;98224.44;1750813;81;20192;-89
2022/07/05 08:48:10;;;;;;;;;;;;;;;19.86;93.60;98225.45;1751748;81;20194;-83
2022/07/05 08:50:39;;;;;;;;;;;;;;;19.90;92.99;98231.88;1751689;82;20240;-90
2022/07/05 08:53:05;;;;;;;;;;;;;;;19.88;92.79;98228.67;1750870;81;20701;-84
2022/07/05 08:55:34;;;;;;;;;;;;;;;19.86;94.98;98226.26;1744864;81;20216;-83
2022/07/05 08:58:00;;;;;;;;;;;;;;;19.94;92.92;98224.02;1685736;84;20198;-84
2022/07/05 09:00:26;;;;;;;;;;;;;;;19.94;96.11;98219.89;1748825;81;20240;-90
2022/07/05 09:02:52;;;;;;;;;;;;;;;20.00;94.06;98219.13;1749556;80;20242;-84
2022/07/05 09:05:18;;;;;;;;;;;;;;;20.01;93.57;98211.10;1749516;81;21144;-90
2022/07/05 09:07:47;;;;;;;;;;;;;;;20.02;94.00;98214.66;1754361;80;20234;-84
2022/07/05 09:10:13;;;;;;;;;;;;;;;20.07;92.35;98221.30;1746957;81;20178;-88
2022/07/05 09:12:39;;;;;;;;;;;;;;;19.99;91.88;98221.61;1744376;80;20201;-88
2022/07/05 09:15:05;;;;;;;;;;;;;;;19.95;92.18;98215.99;1687643;82;20177;-83
2022/07/05 09:17:31;;;;;;;;;;;;;;;19.99;92.04;98213.36;1729877;81;21020;-83
2022/07/05 09:20:09;;;;;;;;;;;;;;;20.03;92.94;98212.94;1749540;81;20772;-89
2022/07/05 09:22:52;;;;;;;;;;;;;;;20.12;93.81;98215.04;1746100;82;20214;-89
2022/07/05 09:25:29;;;;;;;;;;;;;;;20.14;92.86;98213.32;1744998;81;20165;-89
2022/07/05 09:28:04;;;;;;;;;;;;;;;20.15;92.46;98222.61;1751316;82;20170;-89
2022/07/05 09:30:37;;;;;;;;;;;;;;;20.11;93.79;98218.13;1741705;81;21156;-89
2022/07/05 09:33:11;;;;;;;;;;;;;;;20.10;92.45;98228.33;1719361;83;20125;-89
2022/07/05 09:35:38;;;;;;;;;;;;;;;20.09;92.94;98223.98;1723627;82;20191;-83
2022/07/05 09:38:04;;;;;;;;;;;;;;;20.09;93.57;98219.85;1742733;81;20536;-83
2022/07/05 09:40:32;;;;;;;;;;;;;;;20.04;95.93;98219.24;1737719;82;20422;-89
2022/07/05 09:43:14;;;;;;;;;;;;;;;20.11;93.93;98218.13;1732561;81;21239;-89
2022/07/05 09:45:40;;;;;;;;;;;;;;;20.21;91.93;98225.39;1728647;81;20168;-89
2022/07/05 09:48:07;;;;;;;;;;;;;;;20.28;92.32;98222.91;1746894;82;20175;-90
2022/07/05 09:50:35;;;;;;;;;;;;;;;20.31;91.32;98218.66;1741041;81;20469;-84
2022/07/05 09:53:01;;;;;;;;;;;;;;;20.37;92.52;98224.77;1736828;81;20210;-90
2022/07/05 09:55:27;;;;;;;;;;;;;;;20.47;91.90;98216.11;1751303;81;21083;-89
2022/07/05 09:57:54;;;;;;;;;;;;;;;20.49;90.18;98218.75;1751349;82;20145;-90
2022/07/05 10:00:20;;;;;;;;;;;;;;;20.50;90.44;98216.22;1751483;82;20179;-89
2022/07/05 10:02:49;;;;;;;;;;;;;;;20.62;90.94;98214.66;1751472;80;20180;-83
2022/07/05 10:05:17;;;;;;;;;;;;;;;20.74;89.86;98209.97;1744934;81;20500;-83
2022/07/05 10:07:50;;;;;;;;;;;;;;;20.72;89.36;98216.98;1751495;82;21914;-89
2022/07/05 10:10:18;;;;;;;;;;;;;;;20.71;90.10;98209.29;1751308;81;20171;-84
2022/07/05 10:12:44;;;;;;;;;;;;;;;20.81;92.29;98201.16;1730739;81;20462;-83
2022/07/05 10:15:11;;;;;;;;;;;;;;;20.94;90.78;98204.73;1750385;82;20927;-84
2022/07/05 10:17:54;;;;;;;;;;;;;;;21.07;90.59;98209.09;1749441;80;20196;-84
2022/07/05 10:20:42;;;;;;;;;;;;;;;21.10;90.66;98211.95;1744479;81;21077;-83
2022/07/05 10:23:17;;;;;;;;;;;;;;;21.19;90.37;98217.92;1742568;80;20127;-89
2022/07/05 10:25:47;;;;;;;;;;;;;;;21.19;90.41;98211.84;1749852;80;20202;-84
2022/07/05 10:28:12;;;;;;;;;;;;;;;21.21;89.79;98213.70;1746974;82;20232;-89
2022/07/05 10:30:38;;;;;;;;;;;;;;;21.33;89.81;98209.58;1747568;81;21424;-89
2022/07/05 10:33:05;;;;;;;;;;;;;;;21.26;89.61;98215.40;1716579;82;21945;-84
2022/07/05 10:35:31;;;;;;;;;;;;;;;21.31;90.67;98211.88;1744380;81;20200;-84
2022/07/05 10:37:58;;;;;;;;;;;;;;;21.39;89.18;98206.83;1743414;80;20232;-90
2022/07/05 10:40:24;;;;;;;;;;;;;;;21.39;88.79;98204.64;1714734;82;20172;-90
2022/07/05 10:42:56;;;;;;;;;;;;;;;21.56;88.97;98208.53;1748168;80;20260;-85
2022/07/05 10:45:33;;;;;;;;;;;;;;;21.72;88.34;98210.57;1748917;81;21150;-89
2022/07/05 10:48:13;;;;;;;;;;;;;;;21.75;88.53;98210.66;1751055;80;20565;-83
2022/07/05 10:50:55;;;;;;;;;;;;;;;21.73;88.67;98208.03;1751396;82;20163;-89
2022/07/05 10:53:23;;;;;;;;;;;;;;;21.80;88.20;98204.11;1749338;80;20160;-89
2022/07/05 10:56:00;;;;;;;;;;;;;;;21.94;88.21;98206.70;1744913;82;20215;-90
2022/07/05 10:58:32;;;;;;;;;;;;;;;21.95;88.34;98200.59;1733225;80;21151;-84
2022/07/05 11:01:22;;;;;;;;;;;;;;;21.96;87.79;98203.58;1747842;82;20164;-84
2022/07/05 11:04:05;;;;;;;;;;;;;;;21.98;87.63;98194.40;1747125;81;20178;-89
2022/07/05 11:06:43;;;;;;;;;;;;;;;21.87;87.30;98196.02;1747035;81;20462;-85
2022/07/05 11:09:13;;;;;;;;;;;;;;;21.67;86.21;98194.48;1745565;82;20196;-90
2022/07/05 11:11:44;;;;;;;;;;;;;;;21.69;86.60;98191.37;1750260;81;21042;-84
2022/07/05 11:14:25;;;;;;;;;;;;;;;21.76;87.18;98190.78;1750837;81;20450;-84
2022/07/05 11:17:13;;;;;;;;;;;;;;;21.77;87.19;98189.63;1747412;80;20150;-84
2022/07/05 11:20:15;;;;;;;;;;;;;;;21.74;87.93;98184.82;1749555;81;20238;-90
2022/07/05 11:23:02;;;;;;;;;;;;;;;21.73;88.37;98182.64;1744956;80;20223;-90
2022/07/05 11:25:30;;;;;;;;;;;;;;;21.60;89.84;98176.91;1748755;81;21071;-90
2022/07/05 11:28:07;;;;;;;;;;;;;;;21.61;89.86;98177.94;1747972;80;20194;-90
2022/07/05 11:30:53;;;;;;;;;;;;;;;21.68;89.44;98175.98;1741806;82;20169;-90
2022/07/05 11:33:28;;;;;;;;;;;;;;;21.66;89.29;98175.53;1739943;81;20214;-90
2022/07/05 11:35:54;;;;;;;;;;;;;;;21.80;89.00;98173.78;1749103;82;20462;-84
2022/07/05 11:38:19;;;;;;;;;;;;;;;21.84;89.05;98174.67;1750851;80;20763;-84
2022/07/05 11:40:45;;;;;;;;;;;;;;;21.77;89.56;98175.26;1751047;81;20288;-84
2022/07/05 11:43:11;;;;;;;;;;;;;;;21.77;89.77;98178.59;1732987;80;20191;-90
2022/07/05 11:45:38;;;;;;;;;;;;;;;21.74;89.88;98173.21;1752082;81;20163;-90
2022/07/05 11:48:04;;;;;;;;;;;;;;;21.75;89.42;98170.67;1747417;81;20636;-90
2022/07/05 11:50:31;;;;;;;;;;;;;;;21.67;90.04;98174.38;1744686;81;21203;-90
2022/07/05 11:52:58;;;;;;;;;;;;;;;21.57;90.03;98172.11;1739469;81;20237;-91
2022/07/05 11:55:25;;;;;;;;;;;;;;;21.55;89.06;98166.95;1743896;82;20292;-84
2022/07/05 11:57:52;;;;;;;;;;;;;;;21.50;89.64;98169.93;1716994;82;20299;-90
2022/07/05 12:00:31;;;;;;;;;;;;;;;21.33;90.30;98161.92;1753765;81;20179;-90
2022/07/05 12:02:57;;;;;;;;;;;;;;;21.26;89.82;98165.80;1747948;81;21059;-90
2022/07/05 12:05:23;;;;;;;;;;;;;;;21.20;90.85;98160.31;1748733;81;20176;-85
2022/07/05 12:07:50;;;;;;;;;;;;;;;21.20;90.59;98164.45;1749740;81;20188;-86
2022/07/05 12:13:04;;;;;;;;;;;;;;;21.00;90.21;98166.16;1736901;82;20410;-83
2022/07/05 12:15:31;;;;;;;;;;;;;;;20.87;91.62;98159.06;1739512;82;21170;-88
2022/07/05 12:17:57;;;;;;;;;;;;;;;20.79;92.37;98159.39;1739444;81;20501;-88
2022/07/05 12:20:24;;;;;;;;;;;;;;;20.61;94.15;98157.43;1713592;82;20713;-83
2022/07/05 12:22:49;;;;;;;;;;;;;;;20.66;92.70;98159.14;1740742;82;20179;-83
2022/07/05 12:25:21;;;;;;;;;;;;;;;20.59;95.24;98153.39;1739811;82;20178;-88
2022/07/05 12:27:47;;;;;;;;;;;;;;;20.53;96.22;98154.20;1741217;81;21076;-89
2022/07/05 12:30:14;;;;;;;;;;;;;;;20.45;96.14;98155.91;1740797;81;20752;-89
2022/07/05 12:32:57;;;;;;;;;;;;;;;20.38;97.09;98158.38;1730675;81;20188;-89
2022/07/05 12:35:31;;;;;;;;;;;;;;;20.39;96.80;98151.73;1732071;81;20197;-89
2022/07/05 12:37:59;;;;;;;;;;;;;;;20.34;97.02;98156.09;1732839;81;20162;-83
2022/07/05 12:40:24;;;;;;;;;;;;;;;20.10;97.80;98155.44;1734302;80;21234;-88
2022/07/05 12:43:02;;;;;;;;;;;;;;;20.15;98.57;98163.47;1750133;80;20311;-88
2022/07/05 12:45:28;;;;;;;;;;;;;;;20.12;97.99;98157.84;1735590;82;20186;-88
2022/07/05 12:47:55;;;;;;;;;;;;;;;20.03;98.56;98161.25;1744708;82;20657;-88
2022/07/05 12:50:24;;;;;;;;;;;;;;;20.06;97.65;98149.56;1701058;83;20193;-89
2022/07/05 12:58:32;;;;;;;;;;;;;;;20.16;98.46;98159.56;1720468;81;20165;-89
2022/07/05 13:00:57;;;;;;;;;;;;;;;20.19;97.18;98157.53;1732996;82;20168;-88
2022/07/05 13:03:23;;;;;;;;;;;;;;;20.29;96.98;98156.30;1740267;82;20185;-89
2022/07/05 13:06:02;;;;;;;;;;;;;;;20.27;96.91;98158.02;1737485;82;21155;-89
2022/07/05 13:08:29;;;;;;;;;;;;;;;20.33;96.44;98153.08;1737666;82;20165;-83
2022/07/05 13:10:54;;;;;;;;;;;;;;;20.22;96.55;98155.47;1727041;81;20197;-88
2022/07/05 13:13:20;;;;;;;;;;;;;;;20.30;97.07;98155.15;1736780;81;20242;-87
2022/07/05 13:15:46;;;;;;;;;;;;;;;20.25;96.36;98156.19;1737364;81;20193;-88
2022/07/05 13:18:12;;;;;;;;;;;;;;;20.21;96.96;98160.73;1737753;81;21033;-89
2022/07/05 13:20:38;;;;;;;;;;;;;;;20.21;96.89;98151.11;1714554;82;20180;-89
2022/07/05 13:23:03;;;;;;;;;;;;;;;20.19;97.27;98160.86;1738702;82;20205;-88
2022/07/05 13:25:29;;;;;;;;;;;;;;;20.33;96.02;98163.28;1735171;81;20238;-88
2022/07/05 13:27:55;;;;;;;;;;;;;;;20.28;96.77;98167.08;1738963;82;20304;-88
2022/07/05 13:30:21;;;;;;;;;;;;;;;20.19;96.96;98162.23;1729941;81;21611;-83
2022/07/05 13:32:47;;;;;;;;;;;;;;;20.14;96.99;98166.56;1740740;81;20205;-89
2022/07/05 13:35:13;;;;;;;;;;;;;;;20.04;98.48;98162.86;1735525;81;20207;-88
2022/07/05 13:37:38;;;;;;;;;;;;;;;20.08;97.52;98156.91;1740374;81;20295;-88
2022/07/05 13:40:05;;;;;;;;;;;;;;;20.13;96.70;98166.33;1739489;82;20167;-82
2022/07/05 13:42:31;;;;;;;;;;;;;;;20.09;97.03;98170.91;1724852;82;21215;-83
2022/07/05 13:44:57;;;;;;;;;;;;;;;20.05;96.47;98163.89;1734153;82;20775;-82
2022/07/05 13:47:22;;;;;;;;;;;;;;;20.05;97.00;98165.27;1736024;81;20205;-88
2022/07/05 13:49:48;;;;;;;;;;;;;;;20.01;97.13;98161.59;1739455;81;20228;-83
2022/07/05 13:52:14;;;;;;;;;;;;;;;19.91;97.59;98161.99;1736914;81;20181;-89
2022/07/05 13:54:43;;;;;;;;;;;;;;;19.92;97.68;98164.43;1740052;82;21071;-89
2022/07/05 13:57:07;;;;;;;;;;;;;;;19.94;96.96;98164.89;1729608;81;20191;-89
2022/07/05 13:59:33;;;;;;;;;;;;;;;20.02;97.04;98157.70;1741320;81;20257;-88
2022/07/05 14:01:59;;;;;;;;;;;;;;;20.14;96.41;98157.73;1736057;80;20607;-83
2022/07/05 14:04:27;;;;;;;;;;;;;;;20.25;96.40;98161.69;1732885;82;20211;-89
2022/07/05 14:06:52;;;;;;;;;;;;;;;20.27;96.42;98154.46;1741378;81;21207;-83
2022/07/05 14:09:18;;;;;;;;;;;;;;;20.32;96.36;98152.05;1733196;82;20247;-82
2022/07/05 14:11:44;;;;;;;;;;;;;;;20.37;96.02;98149.09;1743053;82;20749;-89
2022/07/05 14:14:12;;;;;;;;;;;;;;;20.33;95.76;98144.83;1739844;81;20212;-88
2022/07/05 14:16:37;;;;;;;;;;;;;;;20.23;95.68;98154.89;1735930;81;20174;-88
2022/07/05 14:19:03;;;;;;;;;;;;;;;20.21;95.47;98147.56;1736002;80;21097;-90
2022/07/05 14:21:28;;;;;;;;;;;;;;;20.26;95.43;98148.73;1731769;82;20834;-90
2022/07/05 14:23:54;;;;;;;;;;;;;;;20.19;96.20;98147.91;1731957;82;20277;-89
2022/07/05 14:26:20;;;;;;;;;;;;;;;20.20;95.68;98142.63;1732004;82;20527;-83
2022/07/05 14:28:46;;;;;;;;;;;;;;;20.20;95.14;98138.50;1737299;82;20265;-90
2022/07/05 14:31:11;;;;;;;;;;;;;;;20.20;95.50;98136.33;1730571;80;21241;-90
2022/07/05 14:33:39;;;;;;;;;;;;;;;20.16;95.82;98142.26;1731261;81;20200;-84
2022/07/05 14:36:05;;;;;;;;;;;;;;;20.09;95.70;98146.16;1727633;82;20203;-89
2022/07/05 14:38:31;;;;;;;;;;;;;;;20.29;95.26;98139.78;1733467;81;20166;-89
2022/07/05 14:40:57;;;;;;;;;;;;;;;20.31;95.24;98141.62;1706696;82;20216;-83
2022/07/05 14:43:22;;;;;;;;;;;;;;;20.41;94.84;98139.80;1740320;81;21268;-88
2022/07/05 14:45:48;;;;;;;;;;;;;;;20.45;94.84;98130.34;1738948;81;20189;-90
2022/07/05 14:48:14;;;;;;;;;;;;;;;20.41;94.99;98132.92;1739738;81;20233;-84
2022/07/05 14:50:40;;;;;;;;;;;;;;;20.44;94.64;98130.91;1738545;82;20270;-83
2022/07/05 14:53:07;;;;;;;;;;;;;;;20.34;95.17;98129.95;1740127;82;20195;-90
2022/07/05 14:55:35;;;;;;;;;;;;;;;20.29;95.34;98131.53;1739500;82;21031;-90
2022/07/05 14:58:01;;;;;;;;;;;;;;;20.19;95.66;98124.52;1735703;82;20508;-90
2022/07/05 15:00:27;;;;;;;;;;;;;;;20.16;95.18;98135.38;1737455;82;20254;-90
2022/07/05 15:02:53;;;;;;;;;;;;;;;20.06;96.21;98126.98;1739561;82;20209;-84
2022/07/05 15:05:19;;;;;;;;;;;;;;;20.02;96.47;98126.65;1740633;81;20231;-90
2022/07/05 15:07:45;;;;;;;;;;;;;;;19.93;97.25;98126.16;1739664;81;21947;-84
2022/07/05 15:10:11;;;;;;;;;;;;;;;19.80;97.92;98124.49;1730803;81;20435;-90
2022/07/05 15:12:37;;;;;;;;;;;;;;;19.88;97.60;98120.86;1739517;80;20733;-84
2022/07/05 15:15:03;;;;;;;;;;;;;;;19.95;97.20;98124.44;1709998;82;20569;-89
2022/07/05 15:17:29;;;;;;;;;;;;;;;19.91;97.21;98128.99;1715342;82;20170;-90
2022/07/05 15:19:55;;;;;;;;;;;;;;;19.84;97.58;98129.56;1738155;80;21144;-85
2022/07/05 15:22:20;;;;;;;;;;;;;;;19.79;97.86;98124.83;1740687;82;20210;-85
2022/07/05 15:24:46;;;;;;;;;;;;;;;19.82;97.62;98117.27;1732337;82;20209;-84
2022/07/05 15:27:12;;;;;;;;;;;;;;;19.83;97.29;98125.78;1721403;82;20174;-84
2022/07/05 15:29:38;;;;;;;;;;;;;;;19.88;96.63;98129.11;1736240;81;20192;-84
2022/07/05 15:32:05;;;;;;;;;;;;;;;19.94;96.83;98127.77;1739842;81;21844;-84
2022/07/05 15:34:31;;;;;;;;;;;;;;;20.01;95.99;98127.22;1740048;82;20559;-90
2022/07/05 15:36:56;;;;;;;;;;;;;;;20.03;95.95;98122.75;1740194;81;20281;-90
2022/07/05 15:39:22;;;;;;;;;;;;;;;20.04;96.17;98116.91;1736821;82;20443;-90
2022/07/05 15:41:48;;;;;;;;;;;;;;;20.04;95.42;98114.73;1732095;81;20281;-90
2022/07/05 15:44:14;;;;;;;;;;;;;;;19.97;95.79;98120.20;1739440;82;39032;-90
2022/07/05 15:49:24;;;;;;;;;;;;;;;20.06;95.57;98116.56;1738504;80;20164;-90
2022/07/05 15:51:50;;;;;;;;;;;;;;;20.09;95.83;98107.66;1737052;82;20158;-90
2022/07/05 15:54:16;;;;;;;;;;;;;;;19.99;96.33;98104.73;1739778;82;20182;-84
2022/07/05 15:56:42;;;;;;;;;;;;;;;19.94;96.68;98097.52;1729621;82;21064;-84
2022/07/05 15:59:07;;;;;;;;;;;;;;;19.81;97.46;98101.92;1744540;82;20157;-90
2022/07/05 16:01:33;;;;;;;;;;;;;;;19.64;98.18;98096.02;1721214;82;20272;-90
2022/07/05 16:03:59;;;;;;;;;;;;;;;19.70;97.81;98095.48;1738467;82;20237;-90
2022/07/05 16:06:25;;;;;;;;;;;;;;;19.74;97.28;98090.13;1735067;82;20165;-90
2022/07/05 16:08:50;;;;;;;;;;;;;;;19.60;98.08;98090.97;1732613;81;21068;-84
2022/07/05 16:11:16;;;;;;;;;;;;;;;19.60;97.24;98090.40;1735002;82;20206;-90
2022/07/05 16:13:42;;;;;;;;;;;;;;;19.61;97.72;98089.83;1738943;81;20256;-84
2022/07/05 16:16:10;;;;;;;;;;;;;;;19.60;97.99;98086.28;1734555;81;20150;-85
2022/07/05 16:18:36;;;;;;;;;;;;;;;19.59;97.27;98086.63;1736042;81;20137;-84
2022/07/05 16:21:04;;;;;;;;;;;;;;;19.56;97.85;98090.83;1739613;81;21118;-90
2022/07/05 16:23:31;;;;;;;;;;;;;;;19.60;97.88;98091.77;1739653;81;20160;-84
2022/07/05 16:25:59;;;;;;;;;;;;;;;19.56;98.29;98087.24;1740793;82;20193;-84
2022/07/05 16:28:26;;;;;;;;;;;;;;;19.45;98.77;98085.48;1740244;82;20465;-84
2022/07/05 16:30:51;;;;;;;;;;;;;;;19.45;98.61;98086.86;1740681;82;20199;-89
2022/07/05 16:33:17;;;;;;;;;;;;;;;19.40;98.94;98088.45;1740333;81;21032;-89
2022/07/05 16:35:43;;;;;;;;;;;;;;;19.41;99.04;98088.11;1741141;81;20810;-84
2022/07/05 16:38:09;;;;;;;;;;;;;;;19.41;99.12;98078.49;1735229;81;20281;-84
2022/07/05 16:40:35;;;;;;;;;;;;;;;19.33;99.75;98081.31;1740311;82;20194;-83
2022/07/05 16:43:01;;;;;;;;;;;;;;;19.27;100.00;98088.94;1723088;82;20187;-89
2022/07/05 16:45:28;;;;;;;;;;;;;;;19.32;99.85;98085.20;1728125;82;21102;-84
2022/07/05 16:47:54;;;;;;;;;;;;;;;19.32;100.00;98081.08;1724865;82;20172;-84
2022/07/05 16:50:19;;;;;;;;;;;;;;;19.28;99.82;98086.42;1700482;82;20200;-90
2022/07/05 16:52:45;;;;;;;;;;;;;;;19.29;99.80;98085.85;1719819;81;20263;-90
2022/07/05 16:55:11;;;;;;;;;;;;;;;19.30;99.13;98084.71;1737586;82;20160;-89
2022/07/05 16:57:37;;;;;;;;;;;;;;;19.25;99.80;98087.67;1739498;81;21128;-89
2022/07/05 17:00:04;;;;;;;;;;;;;;;19.25;99.97;98085.73;1737554;82;20808;-89
2022/07/05 17:02:29;;;;;;;;;;;;;;;19.25;100.00;98087.11;1740472;81;20284;-88
2022/07/05 17:04:55;;;;;;;;;;;;;;;19.29;99.16;98082.53;1740240;82;20229;-89